Kenwood, Missouri
Current Conditions -  °F | °C
As of 1:55 AM on Saturday 01 Nov 2014 (Local Time) from KIRK Reporting Station
Clear Clear  
Wind Chill: 19°   Ceiling: Unl
Heat Index: 26°   Visibility: 10mi
Dew Point: 20°   Wind: 6mph
Humidity: 78%   Direction: 10°N
Pressure: 30.46"   Gusts: NA
Location:  40.1672°N, 92.2645°W
Report Text: KIRK 010655Z AUTO 01005KT 10SM CLR M03/M07 A3046 RMK AO2 SLP327 T10331067
Loading
Personal Weather Stations






























Interactive Weather Map
Tropical Storm Tracking
New forecast layout! Learn more

10-Day Weather Forecast

Advertisements
Track Severe Weather on mobile